createdAt,value
2023-10-25T00:00:10.168Z,9.93
2023-10-25T00:05:11.692Z,9.94
2023-10-25T00:10:13.132Z,9.99
2023-10-25T00:15:14.546Z,10.01
2023-10-25T00:20:15.944Z,10.04
2023-10-25T00:25:17.349Z,10.06
2023-10-25T00:30:18.830Z,10.12
2023-10-25T00:35:20.266Z,10.17
2023-10-25T00:40:21.698Z,10.21
2023-10-25T00:45:23.183Z,10.25
2023-10-25T00:50:24.559Z,10.27
2023-10-25T00:55:25.990Z,10.30
2023-10-25T01:00:28.129Z,10.34
2023-10-25T01:05:30.815Z,10.37
2023-10-25T01:10:32.304Z,10.41
2023-10-25T01:15:33.761Z,10.38
2023-10-25T01:20:35.192Z,10.37
2023-10-25T01:25:36.777Z,10.40
2023-10-25T01:30:38.428Z,10.41
2023-10-25T01:35:39.907Z,10.39
2023-10-25T01:40:41.305Z,10.40
2023-10-25T01:45:42.812Z,10.45
2023-10-25T01:50:44.304Z,10.48
2023-10-25T01:55:46.890Z,10.54
2023-10-25T02:00:48.402Z,10.64
2023-10-25T02:05:49.794Z,10.71
2023-10-25T02:10:51.169Z,10.81
2023-10-25T02:15:52.635Z,10.95
2023-10-25T02:20:54.008Z,11.03
2023-10-25T02:25:55.365Z,11.04
2023-10-25T02:30:56.766Z,11.10
2023-10-25T02:35:58.152Z,11.18
2023-10-25T02:40:59.525Z,11.22
2023-10-25T02:46:07.056Z,11.18
2023-10-25T02:51:08.621Z,11.19
2023-10-25T02:56:09.987Z,11.30
2023-10-25T03:01:21.901Z,11.40
2023-10-25T03:06:23.705Z,11.46
2023-10-25T03:11:25.172Z,11.41
2023-10-25T03:16:26.660Z,11.47
2023-10-25T03:21:28.248Z,11.56
2023-10-25T03:26:29.653Z,11.52
2023-10-25T03:31:31.135Z,11.40
2023-10-25T03:36:32.582Z,11.21
2023-10-25T03:41:34.096Z,11.13
2023-10-25T03:46:35.670Z,11.27
2023-10-25T03:51:37.147Z,11.26
2023-10-25T03:56:38.510Z,11.31
2023-10-25T04:01:40.302Z,11.43
2023-10-25T04:06:41.813Z,11.42
2023-10-25T04:11:43.201Z,11.44
2023-10-25T04:16:44.654Z,11.41
2023-10-25T04:21:46.148Z,11.37
2023-10-25T04:26:47.768Z,11.31
2023-10-25T04:31:49.222Z,11.35
2023-10-25T04:36:50.821Z,11.43
2023-10-25T04:41:52.256Z,11.49
2023-10-25T04:46:53.661Z,11.61
2023-10-25T04:51:55.370Z,11.70
2023-10-25T04:56:59.077Z,11.81
2023-10-25T05:02:00.517Z,11.87
2023-10-25T05:07:02.262Z,11.90
2023-10-25T05:12:08.038Z,11.90
2023-10-25T05:17:10.597Z,11.89
2023-10-25T05:22:14.652Z,11.85
2023-10-25T05:27:16.636Z,11.78
2023-10-25T05:32:20.582Z,11.70
2023-10-25T05:37:22.333Z,11.77
2023-10-25T05:42:28.290Z,11.79
2023-10-25T05:47:30.233Z,11.76
2023-10-25T05:52:31.990Z,11.81
2023-10-25T05:57:33.661Z,11.78
2023-10-25T06:02:35.454Z,11.75
2023-10-25T06:07:37.184Z,11.84
2023-10-25T06:12:41.828Z,11.84
2023-10-25T06:17:43.526Z,11.93
2023-10-25T06:22:44.917Z,11.98
2023-10-25T06:27:46.290Z,11.97
2023-10-25T06:32:47.745Z,12.10
2023-10-25T06:37:49.544Z,12.13
2023-10-25T06:42:53.758Z,12.15
2023-10-25T06:47:55.463Z,12.27
2023-10-25T06:52:57.302Z,12.36
2023-10-25T06:57:59.035Z,12.43
2023-10-25T07:03:04.127Z,12.48
2023-10-25T07:08:06.039Z,12.55
2023-10-25T07:13:07.564Z,12.54
2023-10-25T07:18:09.068Z,12.56
2023-10-25T07:23:10.515Z,12.51
2023-10-25T07:28:12.266Z,12.50
2023-10-25T07:33:14.294Z,12.50
2023-10-25T07:38:15.953Z,12.60
2023-10-25T07:43:17.425Z,12.63
2023-10-25T07:48:18.843Z,12.61
2023-10-25T07:53:20.228Z,12.66
2023-10-25T07:58:27.529Z,12.73
2023-10-25T08:03:30.458Z,12.75
2023-10-25T08:08:33.005Z,12.66
2023-10-25T08:13:36.053Z,12.73
2023-10-25T08:18:37.469Z,12.75
2023-10-25T08:23:39.389Z,12.62
2023-10-25T08:28:40.840Z,12.67
2023-10-25T08:33:42.349Z,12.64
2023-10-25T08:38:43.746Z,12.56
2023-10-25T08:43:45.224Z,12.54
2023-10-25T08:48:46.922Z,12.64
2023-10-25T08:53:51.302Z,12.78
2023-10-25T08:58:53.077Z,12.90
2023-10-25T09:03:54.649Z,12.90
2023-10-25T09:09:00.927Z,13.07
2023-10-25T09:14:02.345Z,13.40
2023-10-25T09:19:04.811Z,13.59
2023-10-25T09:24:10.301Z,13.87
2023-10-25T09:29:13.845Z,13.99
2023-10-25T09:34:16.260Z,14.12
2023-10-25T09:39:17.669Z,14.23
2023-10-25T09:44:23.553Z,14.16
2023-10-25T09:49:30.169Z,14.22
2023-10-25T09:54:34.130Z,14.37
2023-10-25T09:59:36.741Z,14.43
2023-10-25T10:04:50.941Z,14.58
2023-10-25T10:10:13.696Z,14.67
2023-10-25T10:15:15.719Z,14.75
2023-10-25T10:20:25.617Z,14.83
2023-10-25T10:25:46.592Z,14.79
2023-10-25T10:30:48.756Z,14.73
2023-10-25T10:35:50.355Z,14.49
2023-10-25T10:40:54.375Z,14.27
2023-10-25T10:45:55.833Z,14.12
2023-10-25T10:50:57.231Z,14.08
2023-10-25T10:55:58.721Z,14.03
2023-10-25T11:01:00.185Z,14.00
2023-10-25T11:06:04.559Z,13.98
2023-10-25T11:11:06.811Z,13.83
2023-10-25T11:16:10.062Z,13.85
2023-10-25T11:21:15.672Z,13.87
2023-10-25T11:26:17.472Z,13.84
2023-10-25T11:31:19.135Z,13.84
2023-10-25T11:36:20.552Z,13.89
2023-10-25T11:41:22.153Z,13.82
2023-10-25T11:46:25.173Z,13.77
2023-10-25T11:51:26.617Z,13.78
2023-10-25T11:56:28.337Z,13.80
2023-10-25T12:01:29.788Z,13.81
2023-10-25T12:06:31.398Z,13.86
2023-10-25T12:11:32.990Z,13.82
2023-10-25T12:16:34.378Z,13.75
2023-10-25T12:21:35.748Z,13.61
2023-10-25T12:26:37.138Z,13.54
2023-10-25T12:31:38.626Z,13.50
2023-10-25T12:36:40.153Z,13.56
2023-10-25T12:41:41.553Z,13.51
2023-10-25T12:46:44.834Z,13.36
2023-10-25T12:51:48.502Z,13.41
2023-10-25T12:56:50.006Z,13.51
2023-10-25T13:01:53.548Z,13.37
2023-10-25T13:06:55.489Z,13.49
2023-10-25T13:11:56.893Z,13.43
2023-10-25T13:17:12.649Z,13.46
2023-10-25T13:22:15.313Z,13.45
2023-10-25T13:27:16.816Z,13.39
2023-10-25T13:32:18.301Z,13.47
2023-10-25T13:37:19.827Z,13.52
2023-10-25T13:42:22.134Z,13.52
2023-10-25T13:47:23.619Z,13.54
2023-10-25T13:52:25.233Z,13.56
2023-10-25T13:57:26.643Z,13.62
2023-10-25T14:02:28.080Z,13.68
2023-10-25T14:07:29.527Z,13.63
2023-10-25T14:12:32.666Z,13.56
2023-10-25T14:17:34.112Z,13.63
2023-10-25T14:22:35.558Z,13.79
2023-10-25T14:27:38.565Z,13.89
2023-10-25T14:32:40.074Z,13.75
2023-10-25T14:37:42.465Z,13.85
2023-10-25T14:42:45.410Z,13.95
2023-10-25T14:47:47.021Z,13.93
2023-10-25T14:52:48.631Z,13.94
2023-10-25T14:57:50.019Z,14.03
2023-10-25T15:02:51.503Z,13.95
2023-10-25T15:07:54.225Z,14.01
2023-10-25T15:12:55.619Z,14.14
2023-10-25T15:17:57.190Z,14.18
2023-10-25T15:23:00.900Z,14.21
2023-10-25T15:28:04.594Z,14.35
2023-10-25T15:33:07.841Z,14.47
2023-10-25T15:38:09.219Z,14.41
2023-10-25T15:43:10.587Z,14.38
2023-10-25T15:48:12.057Z,14.35
2023-10-25T15:53:19.527Z,14.38
2023-10-25T15:58:21.308Z,14.39
2023-10-25T16:03:22.821Z,14.40
2023-10-25T16:08:24.363Z,14.37
2023-10-25T16:13:25.750Z,14.38
2023-10-25T16:18:27.237Z,14.34
2023-10-25T16:23:28.674Z,14.25
2023-10-25T16:28:30.065Z,14.20
2023-10-25T16:33:32.333Z,14.23
2023-10-25T16:38:34.268Z,14.20
2023-10-25T16:43:37.123Z,14.20
2023-10-25T16:48:42.113Z,14.25
2023-10-25T16:53:45.993Z,14.28
2023-10-25T16:58:47.700Z,14.28
2023-10-25T17:03:49.251Z,14.29
2023-10-25T17:08:50.874Z,14.29
2023-10-25T17:13:52.621Z,14.39
2023-10-25T17:18:54.261Z,14.36
2023-10-25T17:23:55.795Z,14.41
2023-10-25T17:28:57.763Z,14.40
2023-10-25T17:33:59.484Z,14.38
2023-10-25T17:39:01.179Z,14.41
2023-10-25T17:44:02.590Z,14.45
2023-10-25T17:49:04.069Z,14.53
2023-10-25T17:54:05.674Z,14.55
2023-10-25T17:59:07.111Z,14.55
2023-10-25T18:04:09.288Z,14.59
2023-10-25T18:09:10.827Z,14.64
2023-10-25T18:14:14.560Z,14.64
2023-10-25T18:19:18.359Z,14.68
2023-10-25T18:24:19.928Z,14.67
2023-10-25T18:29:21.724Z,14.65
2023-10-25T18:34:24.032Z,14.60
2023-10-25T18:39:28.275Z,14.48
2023-10-25T18:44:33.583Z,14.50
2023-10-25T18:49:35.578Z,14.51
2023-10-25T18:54:37.010Z,14.52
2023-10-25T18:59:38.827Z,14.48
2023-10-25T19:06:23.730Z,14.40
2023-10-25T19:10:29.743Z,14.32
2023-10-25T19:15:23.680Z,14.37
2023-10-25T19:20:27.051Z,14.39
2023-10-25T19:25:28.630Z,14.40
2023-10-25T19:30:31.162Z,14.40
2023-10-25T19:35:37.028Z,14.42
2023-10-25T19:40:38.743Z,14.37
2023-10-25T19:45:40.635Z,14.38
2023-10-25T19:50:42.183Z,14.42
2023-10-25T19:55:44.055Z,14.52
2023-10-25T20:00:45.606Z,14.46
2023-10-25T20:05:47.025Z,14.43
2023-10-25T20:10:48.975Z,14.45
2023-10-25T20:15:50.348Z,14.45
2023-10-25T20:20:51.838Z,14.42
2023-10-25T20:25:54.749Z,14.34
2023-10-25T20:30:56.174Z,14.30
2023-10-25T20:36:00.105Z,14.24
2023-10-25T20:41:08.649Z,14.39
2023-10-25T20:46:10.293Z,14.42
2023-10-25T20:51:11.768Z,14.36
2023-10-25T20:56:13.154Z,14.44
2023-10-25T21:01:14.594Z,14.34
2023-10-25T21:06:16.112Z,14.40
2023-10-25T21:11:17.569Z,14.32
2023-10-25T21:16:19.049Z,14.40
2023-10-25T21:21:20.562Z,14.35
2023-10-25T21:26:22.089Z,14.29
2023-10-25T21:31:23.874Z,14.33
2023-10-25T21:36:26.743Z,14.30
2023-10-25T21:41:28.211Z,14.27
2023-10-25T21:46:29.652Z,14.18
2023-10-25T21:51:31.114Z,14.20
2023-10-25T21:56:32.516Z,14.14
2023-10-25T22:01:33.933Z,14.06
2023-10-25T22:06:36.447Z,14.00
2023-10-25T22:11:38.596Z,13.96
2023-10-25T22:16:40.634Z,13.80
2023-10-25T22:21:43.011Z,13.72
2023-10-25T22:26:44.500Z,13.66
2023-10-25T22:31:46.311Z,13.57
2023-10-25T22:36:52.091Z,13.56
2023-10-25T22:41:55.412Z,13.59
2023-10-25T22:46:57.212Z,13.58
2023-10-25T22:51:58.697Z,13.62
2023-10-25T22:57:01.494Z,13.67
2023-10-25T23:02:04.444Z,13.71
2023-10-25T23:07:05.903Z,13.75
2023-10-25T23:12:07.776Z,13.68
2023-10-25T23:17:09.189Z,13.73
2023-10-25T23:22:10.722Z,13.66
2023-10-25T23:27:12.158Z,13.62
2023-10-25T23:32:13.623Z,13.59
2023-10-25T23:37:15.221Z,13.55
2023-10-25T23:42:16.631Z,13.51
2023-10-25T23:47:19.351Z,13.44
2023-10-25T23:52:20.764Z,13.40
2023-10-25T23:57:24.553Z,13.56
